Eagle, AK

4:33 PM AKST on February 09, 2016 (GMT -0900)
Eagle | | Change Station
CLOSE
Current Station
Airport
Location: Eagle,
Elevation: 879 ft
Nearby Weather Stations

Elev 879 ft 64.78 °N, 141.15 °W | Updated 40 minutes ago

Clear
Clear
12 °F
Feels Like 3 °F
N
6
Wind Variable Wind from Variable

Today
High -- | Low -- °F
--% Chance of Precip.
Yesterday
High -- | Low -- °F
Precip. -- in
Pressure 30.19 in
Visibility 10.0 miles
Clouds Clear
Windchill 3 °F
Dew Point 5 °F
Humidity 73%
Rainfall 0.00 in
Snow Depth Not available.
8:44 AM 4:34 PM
Waxing Crescent, 3% visible
METAR PAEG 100053Z AUTO VRB05KT 10SM CLR M11/M15 A3013 RMK AO2 SLP223 T11111150 TSNO
Pressure 30.19 in
Visibility 10.0 miles
Clouds Clear
Windchill 3 °F
Dew Point 5 °F
Humidity 73%
Rainfall 0.00 in
Snow Depth Not available.
8:44 AM 4:34 PM
Waxing Crescent, 3% visible
METAR PAEG 100053Z AUTO VRB05KT 10SM CLR M11/M15 A3013 RMK AO2 SLP223 T11111150 TSNO

10-Day Weather Forecast

Almanac

Astronomy

Feb. 09, 2016 Rise Set
Actual Time
Civil Twilight
Nautical Twilight
Astronomical Twilight
Moon
Length of Visible Light
Length of Day
Tomorrow will be .
, % of the Moon is Illuminated

Today's Extremes

State Highs State Lows

Community

WunderPhotos

Upload Photos

1,891,760 photos uploaded!

WunderBlog® & News

Nearby

Air Quality

  Air Quality AQ Index Pollutant
Not available.

Snow Depth

Station Depth Elevation

Earthquake Activity

City Distance Mag. Time & Date
Minimum magnitude displayed is 2.5.

Coastal Water Temperatures

Place Temperature

Stations

Nearby Weather Stations

Station Location Temp. Windchill Dew Point Humidity Wind Precip. Elev Updated Type
                   

Watches & Warnings

There are currently no watches in effect.